createdAt,value
2019-01-30T00:00:18.823Z,16.77
2019-01-30T00:02:47.258Z,13.47
2019-01-30T00:05:15.712Z,13.30
2019-01-30T00:07:44.140Z,23.20
2019-01-30T00:10:12.839Z,14.93
2019-01-30T00:12:41.267Z,17.90
2019-01-30T00:15:10.152Z,14.03
2019-01-30T00:17:38.635Z,12.93
2019-01-30T00:20:13.648Z,17.97
2019-01-30T00:22:42.149Z,18.70
2019-01-30T00:25:12.151Z,24.50
2019-01-30T00:27:40.659Z,22.37
2019-01-30T00:30:12.187Z,24.03
2019-01-30T00:32:40.623Z,17.10
2019-01-30T00:35:10.231Z,14.63
2019-01-30T00:37:38.747Z,14.13
2019-01-30T00:40:10.103Z,15.40
2019-01-30T00:42:38.540Z,16.43
2019-01-30T00:45:15.483Z,14.67
2019-01-30T00:47:43.906Z,24.23
2019-01-30T00:50:17.210Z,20.20
2019-01-30T00:52:45.639Z,17.10
2019-01-30T00:55:14.536Z,9.83
2019-01-30T00:57:43.028Z,11.90
2019-01-30T01:00:17.271Z,15.47
2019-01-30T01:02:45.785Z,15.23
2019-01-30T01:05:14.939Z,9.47
2019-01-30T01:07:43.916Z,14.83
2019-01-30T01:10:15.751Z,16.10
2019-01-30T01:12:44.360Z,16.20
2019-01-30T01:15:14.948Z,11.70
2019-01-30T01:17:43.391Z,19.87
2019-01-30T01:20:17.134Z,18.90
2019-01-30T01:22:45.655Z,13.47
2019-01-30T01:25:16.710Z,13.83
2019-01-30T01:27:45.211Z,14.17
2019-01-30T01:30:25.803Z,14.00
2019-01-30T01:32:54.407Z,10.93
2019-01-30T01:35:22.935Z,13.97
2019-01-30T01:37:51.499Z,15.70
2019-01-30T01:40:20.938Z,11.23
2019-01-30T01:42:49.368Z,17.97
2019-01-30T01:45:20.430Z,16.00
2019-01-30T01:47:48.941Z,13.70
2019-01-30T01:50:19.011Z,13.27
2019-01-30T01:52:47.650Z,10.97
2019-01-30T01:55:16.235Z,19.27
2019-01-30T01:57:44.688Z,18.83
2019-01-30T02:00:18.837Z,7.70
2019-01-30T02:02:47.361Z,13.30
2019-01-30T02:05:21.246Z,20.57
2019-01-30T02:07:49.863Z,21.40
2019-01-30T02:10:20.808Z,17.70
2019-01-30T02:12:49.329Z,25.30
2019-01-30T02:15:19.802Z,19.27
2019-01-30T02:17:48.329Z,18.37
2019-01-30T02:20:19.463Z,25.70
2019-01-30T02:22:47.993Z,21.37
2019-01-30T02:25:16.524Z,24.70
2019-01-30T02:27:45.385Z,19.70
2019-01-30T02:30:16.741Z,15.47
2019-01-30T02:32:45.202Z,21.57
2019-01-30T02:35:13.731Z,21.73
2019-01-30T02:37:42.196Z,23.13
2019-01-30T02:40:16.299Z,14.37
2019-01-30T02:42:44.829Z,23.27
2019-01-30T02:45:15.997Z,19.27
2019-01-30T02:47:44.518Z,17.47
2019-01-30T02:50:15.200Z,23.17
2019-01-30T02:52:44.010Z,16.37
2019-01-30T02:55:14.456Z,19.20
2019-01-30T02:57:42.940Z,23.07
2019-01-30T03:00:20.203Z,18.87
2019-01-30T03:02:48.719Z,18.00
2019-01-30T03:05:17.167Z,15.07
2019-01-30T03:07:45.610Z,15.03
2019-01-30T03:10:21.256Z,22.57
2019-01-30T03:12:49.716Z,15.33
2019-01-30T03:15:19.192Z,19.40
2019-01-30T03:17:47.927Z,17.87
2019-01-30T03:20:24.626Z,18.60
2019-01-30T03:22:53.143Z,20.10
2019-01-30T03:25:23.111Z,21.03
2019-01-30T03:27:51.715Z,23.80
2019-01-30T03:30:25.360Z,22.93
2019-01-30T03:32:53.896Z,26.50
2019-01-30T03:35:22.616Z,18.87
2019-01-30T03:37:51.179Z,18.73
2019-01-30T03:40:21.258Z,20.90
2019-01-30T03:42:49.743Z,16.40
2019-01-30T03:45:25.395Z,22.10
2019-01-30T03:47:53.873Z,21.73
2019-01-30T03:50:22.315Z,33.13
2019-01-30T03:52:50.750Z,21.47
2019-01-30T03:55:20.558Z,26.27
2019-01-30T03:57:49.077Z,22.63
2019-01-30T04:00:22.611Z,18.97
2019-01-30T04:02:51.385Z,16.63
2019-01-30T04:05:20.075Z,21.17
2019-01-30T04:07:48.875Z,28.13
2019-01-30T04:10:19.942Z,16.97
2019-01-30T04:12:48.415Z,16.20
2019-01-30T04:15:17.354Z,9.27
2019-01-30T04:17:45.855Z,18.90
2019-01-30T04:20:20.117Z,22.57
2019-01-30T04:22:48.675Z,22.20
2019-01-30T04:25:17.138Z,18.80
2019-01-30T04:27:45.670Z,12.00
2019-01-30T04:30:19.692Z,12.23
2019-01-30T04:32:48.127Z,7.70
2019-01-30T04:35:16.799Z,9.80
2019-01-30T04:37:45.233Z,21.30
2019-01-30T04:40:15.814Z,27.70
2019-01-30T04:42:44.255Z,21.50
2019-01-30T04:45:15.727Z,21.40
2019-01-30T04:47:44.153Z,17.40
2019-01-30T04:50:12.738Z,16.80
2019-01-30T04:52:41.243Z,28.60
2019-01-30T04:55:10.419Z,19.67
2019-01-30T04:57:38.862Z,20.40
2019-01-30T05:00:10.375Z,27.87
2019-01-30T05:02:39.062Z,23.17
2019-01-30T05:05:09.763Z,22.03
2019-01-30T05:07:38.283Z,18.50
2019-01-30T05:10:09.793Z,21.37
2019-01-30T05:12:38.249Z,27.43
2019-01-30T05:15:09.887Z,19.43
2019-01-30T05:17:38.595Z,18.63
2019-01-30T05:20:12.810Z,24.07
2019-01-30T05:22:41.581Z,12.30
2019-01-30T05:25:11.346Z,24.57
2019-01-30T05:27:39.870Z,17.33
2019-01-30T05:30:11.374Z,16.27
2019-01-30T05:32:39.898Z,18.17
2019-01-30T05:35:08.475Z,15.73
2019-01-30T05:37:36.942Z,21.40
2019-01-30T05:40:17.111Z,18.70
2019-01-30T05:42:45.574Z,18.87
2019-01-30T05:45:15.830Z,12.37
2019-01-30T05:47:44.281Z,13.37
2019-01-30T05:50:13.758Z,16.07
2019-01-30T05:52:42.284Z,28.33
2019-01-30T05:55:13.058Z,23.80
2019-01-30T05:57:41.609Z,17.77
2019-01-30T06:00:26.508Z,11.07
2019-01-30T06:02:55.012Z,22.13
2019-01-30T06:05:23.525Z,20.17
2019-01-30T06:07:52.051Z,21.10
2019-01-30T06:10:20.489Z,24.20
2019-01-30T06:12:48.951Z,18.67
2019-01-30T06:15:19.308Z,17.47
2019-01-30T06:17:47.814Z,25.13
2019-01-30T06:20:18.986Z,19.27
2019-01-30T06:22:47.495Z,14.20
2019-01-30T06:25:15.937Z,9.70
2019-01-30T06:27:44.398Z,19.97
2019-01-30T06:30:15.642Z,17.53
2019-01-30T06:32:44.081Z,19.97
2019-01-30T06:35:12.867Z,19.93
2019-01-30T06:37:41.369Z,16.60
2019-01-30T06:40:15.907Z,21.40
2019-01-30T06:42:44.353Z,18.07
2019-01-30T06:45:13.337Z,24.90
2019-01-30T06:47:41.786Z,19.90
2019-01-30T06:50:12.674Z,8.90
2019-01-30T06:52:41.191Z,7.87
2019-01-30T06:55:09.633Z,13.70
2019-01-30T06:57:38.139Z,18.03
2019-01-30T07:00:12.443Z,18.20
2019-01-30T07:02:40.900Z,10.60
2019-01-30T07:05:09.582Z,13.70
2019-01-30T07:07:38.275Z,13.87
2019-01-30T07:10:09.818Z,19.83
2019-01-30T07:12:38.260Z,11.93
2019-01-30T07:15:07.607Z,20.67
2019-01-30T07:17:36.101Z,24.97
2019-01-30T07:20:07.470Z,13.67
2019-01-30T07:22:35.910Z,18.93
2019-01-30T07:25:06.896Z,13.90
2019-01-30T07:27:35.311Z,22.47
2019-01-30T07:30:05.360Z,20.67
2019-01-30T07:32:42.142Z,15.87
2019-01-30T07:35:05.392Z,23.00
2019-01-30T07:37:33.847Z,21.30
2019-01-30T07:40:02.676Z,14.30
2019-01-30T07:42:31.103Z,11.00
2019-01-30T07:44:59.548Z,17.97
2019-01-30T07:47:27.981Z,30.10
2019-01-30T07:49:56.411Z,13.33
2019-01-30T07:52:24.998Z,20.40
2019-01-30T07:54:53.437Z,7.53
2019-01-30T07:57:21.947Z,25.33
2019-01-30T07:59:50.370Z,23.87
2019-01-30T08:02:18.841Z,27.10
2019-01-30T08:04:47.262Z,17.97
2019-01-30T08:07:15.717Z,16.30
2019-01-30T08:09:44.388Z,16.37
2019-01-30T08:12:12.828Z,16.63
2019-01-30T08:14:41.253Z,21.47
2019-01-30T08:17:09.709Z,16.83
2019-01-30T08:19:38.149Z,30.70
2019-01-30T08:22:06.586Z,22.43
2019-01-30T08:24:35.324Z,22.00
2019-01-30T08:27:03.958Z,21.47
2019-01-30T08:29:32.502Z,22.20
2019-01-30T08:32:01.242Z,9.13
2019-01-30T08:34:29.712Z,23.60
2019-01-30T08:36:58.168Z,14.60
2019-01-30T08:39:26.601Z,24.27
2019-01-30T08:41:55.137Z,27.03
2019-01-30T08:44:23.566Z,24.00
2019-01-30T08:46:52.045Z,8.80
2019-01-30T08:49:20.476Z,16.00
2019-01-30T08:51:48.926Z,23.60
2019-01-30T08:54:17.423Z,34.30
2019-01-30T08:56:53.004Z,20.23
2019-01-30T08:59:16.091Z,24.03
2019-01-30T09:01:44.560Z,22.50
2019-01-30T09:04:13.003Z,20.30
2019-01-30T09:06:41.615Z,20.43
2019-01-30T09:09:10.141Z,22.13
2019-01-30T09:11:38.655Z,18.23
2019-01-30T09:14:07.093Z,18.70
2019-01-30T09:16:35.610Z,19.73
2019-01-30T09:19:04.184Z,19.50
2019-01-30T09:21:32.649Z,19.33
2019-01-30T09:24:01.105Z,15.83
2019-01-30T09:26:29.528Z,16.60
2019-01-30T09:28:57.994Z,17.77
2019-01-30T09:31:26.438Z,15.10
2019-01-30T09:33:54.878Z,17.20
2019-01-30T09:36:23.301Z,16.30
2019-01-30T09:38:51.751Z,20.00
2019-01-30T09:41:20.218Z,16.77
2019-01-30T09:43:48.705Z,15.13
2019-01-30T09:46:17.155Z,14.20
2019-01-30T09:48:45.606Z,17.43
2019-01-30T09:51:14.064Z,19.40
2019-01-30T09:53:42.549Z,16.80
2019-01-30T09:56:11.130Z,11.33
2019-01-30T09:58:39.573Z,22.77
2019-01-30T10:01:08.135Z,19.80
2019-01-30T10:03:36.854Z,22.00
2019-01-30T10:06:06.902Z,18.60
2019-01-30T10:08:35.329Z,13.43
2019-01-30T10:11:03.774Z,21.23
2019-01-30T10:13:32.217Z,25.47
2019-01-30T10:16:01.874Z,13.33
2019-01-30T10:18:30.305Z,13.27
2019-01-30T10:20:58.749Z,12.93
2019-01-30T10:23:27.197Z,18.50
2019-01-30T10:25:55.657Z,16.73
2019-01-30T10:28:24.063Z,9.43
2019-01-30T10:30:52.514Z,11.53
2019-01-30T10:33:20.942Z,13.43
2019-01-30T10:35:49.466Z,15.20
2019-01-30T10:38:17.923Z,17.30
2019-01-30T10:40:46.491Z,13.40
2019-01-30T10:43:15.111Z,13.00
2019-01-30T10:45:43.538Z,12.67
2019-01-30T10:48:11.970Z,19.70
2019-01-30T10:50:40.421Z,12.57
2019-01-30T10:53:08.977Z,13.80
2019-01-30T10:55:37.579Z,16.50
2019-01-30T10:58:11.761Z,18.70
2019-01-30T11:00:45.446Z,12.80
2019-01-30T11:03:13.891Z,17.73
2019-01-30T11:05:44.258Z,13.30
2019-01-30T11:08:12.495Z,18.10
2019-01-30T11:10:40.933Z,15.90
2019-01-30T11:13:09.399Z,16.97
2019-01-30T11:15:37.827Z,9.43
2019-01-30T11:18:08.720Z,20.07
2019-01-30T11:20:37.220Z,14.30
2019-01-30T11:23:05.989Z,17.47
2019-01-30T11:25:43.095Z,16.27
2019-01-30T11:28:11.767Z,19.60
2019-01-30T11:30:40.270Z,17.60
2019-01-30T11:33:08.785Z,19.50
2019-01-30T11:35:37.297Z,18.57
2019-01-30T11:38:08.667Z,13.00
2019-01-30T11:40:36.351Z,13.60
2019-01-30T11:43:04.938Z,13.60
2019-01-30T11:45:36.078Z,15.40
2019-01-30T11:48:05.358Z,15.70
2019-01-30T11:50:34.869Z,15.40
2019-01-30T11:53:03.506Z,15.23
2019-01-30T11:55:32.066Z,16.50
2019-01-30T11:58:00.512Z,14.33
2019-01-30T12:00:32.982Z,13.50
2019-01-30T12:03:01.418Z,9.77
2019-01-30T12:05:29.844Z,12.53
2019-01-30T12:07:58.360Z,7.63
2019-01-30T12:10:26.789Z,10.77
2019-01-30T12:12:55.212Z,8.40
2019-01-30T12:15:24.974Z,8.60
2019-01-30T12:17:53.416Z,8.57
2019-01-30T12:20:21.910Z,9.77
2019-01-30T12:22:50.485Z,8.40
2019-01-30T12:25:20.966Z,6.93
2019-01-30T12:27:50.939Z,7.93
2019-01-30T12:30:24.908Z,6.40
2019-01-30T12:32:53.394Z,7.13
2019-01-30T12:35:26.198Z,12.30
2019-01-30T12:37:54.618Z,6.40
2019-01-30T12:40:25.069Z,6.50
2019-01-30T12:42:53.818Z,4.50
2019-01-30T12:45:36.314Z,11.23
2019-01-30T12:48:05.385Z,18.43
2019-01-30T12:50:33.871Z,6.77
2019-01-30T12:53:02.364Z,6.23
2019-01-30T12:55:30.874Z,8.33
2019-01-30T12:57:59.295Z,6.63
2019-01-30T13:00:33.621Z,3.47
2019-01-30T13:03:02.046Z,3.73
2019-01-30T13:05:30.742Z,6.47
2019-01-30T13:07:59.295Z,3.73
2019-01-30T13:10:27.849Z,3.97
2019-01-30T13:12:56.269Z,2.87
2019-01-30T13:15:28.812Z,3.20
2019-01-30T13:17:57.471Z,4.33
2019-01-30T13:20:26.207Z,3.13
2019-01-30T13:22:54.657Z,6.30
2019-01-30T13:25:25.698Z,3.80
2019-01-30T13:27:54.198Z,5.90
2019-01-30T13:30:33.917Z,2.10
2019-01-30T13:33:02.890Z,3.17
2019-01-30T13:35:31.562Z,4.23
2019-01-30T13:38:00.049Z,2.30
2019-01-30T13:40:33.469Z,2.07
2019-01-30T13:43:02.055Z,2.90
2019-01-30T13:45:31.139Z,3.13
2019-01-30T13:47:59.726Z,4.47
2019-01-30T13:50:29.294Z,1.27
2019-01-30T13:52:57.836Z,1.13
2019-01-30T13:55:26.514Z,2.60
2019-01-30T13:57:55.026Z,1.13
2019-01-30T14:00:34.963Z,1.10
2019-01-30T14:03:03.569Z,0.70
2019-01-30T14:05:32.303Z,2.80
2019-01-30T14:08:00.858Z,1.20
2019-01-30T14:10:29.485Z,1.10
2019-01-30T14:12:57.925Z,1.07
2019-01-30T14:15:28.594Z,0.70
2019-01-30T14:17:57.095Z,0.70
2019-01-30T14:20:25.579Z,0.70
2019-01-30T14:22:54.126Z,0.83
2019-01-30T14:25:22.640Z,0.80
2019-01-30T14:27:51.164Z,1.10
2019-01-30T14:30:24.970Z,0.80
2019-01-30T14:32:53.413Z,0.70
2019-01-30T14:35:22.422Z,0.60
2019-01-30T14:37:50.851Z,1.47
2019-01-30T14:40:21.406Z,0.70
2019-01-30T14:42:50.026Z,0.80
2019-01-30T14:45:19.964Z,0.70
2019-01-30T14:47:50.291Z,0.70
2019-01-30T14:50:23.393Z,0.60
2019-01-30T14:52:52.046Z,0.60
2019-01-30T14:55:20.603Z,1.17
2019-01-30T14:57:49.293Z,0.60
2019-01-30T15:00:20.233Z,1.63
2019-01-30T15:02:48.664Z,0.60
2019-01-30T15:05:22.498Z,0.50
2019-01-30T15:07:48.221Z,0.60
2019-01-30T15:10:18.443Z,0.60
2019-01-30T15:12:46.983Z,0.60
2019-01-30T15:15:17.514Z,1.67
2019-01-30T15:17:46.049Z,0.60
2019-01-30T15:20:19.748Z,0.63
2019-01-30T15:22:48.401Z,0.80
2019-01-30T15:25:18.919Z,0.70
2019-01-30T15:27:47.526Z,0.60
2019-01-30T15:30:33.231Z,0.93
2019-01-30T15:33:01.764Z,0.60
2019-01-30T15:35:33.563Z,0.60
2019-01-30T15:38:02.617Z,0.60
2019-01-30T15:40:31.321Z,0.60
2019-01-30T15:43:00.119Z,0.70
2019-01-30T15:45:28.657Z,0.60
2019-01-30T15:47:57.072Z,0.60
2019-01-30T15:50:28.219Z,0.70
2019-01-30T15:52:57.295Z,0.70
2019-01-30T15:55:25.871Z,0.67
2019-01-30T15:57:59.651Z,0.90
2019-01-30T16:00:31.158Z,0.60
2019-01-30T16:02:59.660Z,0.80
2019-01-30T16:05:28.247Z,0.80
2019-01-30T16:07:56.662Z,0.60
2019-01-30T16:10:25.103Z,0.80
2019-01-30T16:12:53.527Z,1.10
2019-01-30T16:15:27.794Z,0.60
2019-01-30T16:17:56.243Z,0.93
2019-01-30T16:20:24.760Z,1.00
2019-01-30T16:22:53.204Z,2.23
2019-01-30T16:25:21.638Z,0.80
2019-01-30T16:27:50.123Z,3.37
2019-01-30T16:30:23.738Z,3.00
2019-01-30T16:32:52.319Z,4.73
2019-01-30T16:35:26.204Z,4.07
2019-01-30T16:37:54.621Z,1.20
2019-01-30T16:40:23.141Z,0.90
2019-01-30T16:42:54.351Z,1.40
2019-01-30T16:45:23.957Z,0.90
2019-01-30T16:47:52.379Z,2.37
2019-01-30T16:50:20.954Z,3.73
2019-01-30T16:52:49.367Z,2.07
2019-01-30T16:55:19.578Z,1.00
2019-01-30T16:57:48.342Z,0.87
2019-01-30T17:00:19.779Z,0.97
2019-01-30T17:02:48.204Z,0.80
2019-01-30T17:05:17.415Z,0.90
2019-01-30T17:07:46.005Z,0.90
2019-01-30T17:10:16.762Z,0.80
2019-01-30T17:12:45.538Z,1.10
2019-01-30T17:15:16.694Z,0.83
2019-01-30T17:17:45.146Z,0.60
2019-01-30T17:20:18.850Z,1.33
2019-01-30T17:22:47.278Z,1.43
2019-01-30T17:25:16.229Z,1.70
2019-01-30T17:27:44.662Z,1.30
2019-01-30T17:30:18.618Z,1.37
2019-01-30T17:32:47.071Z,1.30
2019-01-30T17:35:16.470Z,2.83
2019-01-30T17:37:45.841Z,1.30
2019-01-30T17:40:17.179Z,1.30
2019-01-30T17:42:45.719Z,1.10
2019-01-30T17:45:14.218Z,1.10
2019-01-30T17:47:43.102Z,1.60
2019-01-30T17:50:22.767Z,0.80
2019-01-30T17:52:51.246Z,3.33
2019-01-30T17:55:19.665Z,1.00
2019-01-30T17:57:48.138Z,1.30
2019-01-30T18:00:21.301Z,1.77
2019-01-30T18:02:49.728Z,4.90
2019-01-30T18:05:18.170Z,2.63
2019-01-30T18:07:46.841Z,4.20
2019-01-30T18:10:17.822Z,4.53
2019-01-30T18:12:46.066Z,2.70
2019-01-30T18:15:14.834Z,1.67
2019-01-30T18:17:43.262Z,1.60
2019-01-30T18:20:19.446Z,1.63
2019-01-30T18:22:48.053Z,1.20
2019-01-30T18:25:17.498Z,1.83
2019-01-30T18:27:46.175Z,1.23
2019-01-30T18:30:16.939Z,5.57
2019-01-30T18:32:45.369Z,13.73
2019-01-30T18:35:14.335Z,9.03
2019-01-30T18:37:43.021Z,8.60
2019-01-30T18:40:13.995Z,13.03
2019-01-30T18:42:42.417Z,4.40
2019-01-30T18:45:14.511Z,6.20
2019-01-30T18:47:42.942Z,4.80
2019-01-30T18:50:14.479Z,8.10
2019-01-30T18:52:42.910Z,13.17
2019-01-30T18:55:11.483Z,6.70
2019-01-30T18:57:39.931Z,6.90
2019-01-30T19:00:13.876Z,15.33
2019-01-30T19:02:42.300Z,11.57
2019-01-30T19:05:13.006Z,10.53
2019-01-30T19:07:41.461Z,4.33
2019-01-30T19:10:13.157Z,3.27
2019-01-30T19:12:41.580Z,4.00
2019-01-30T19:15:13.108Z,2.63
2019-01-30T19:17:41.557Z,1.97
2019-01-30T19:20:15.973Z,2.33
2019-01-30T19:22:44.401Z,1.97
2019-01-30T19:25:12.980Z,1.50
2019-01-30T19:27:41.572Z,2.40
2019-01-30T19:30:18.884Z,1.43
2019-01-30T19:32:47.308Z,1.17
2019-01-30T19:35:16.093Z,1.40
2019-01-30T19:37:44.681Z,1.33
2019-01-30T19:40:14.329Z,1.77
2019-01-30T19:42:42.762Z,4.07
2019-01-30T19:45:14.103Z,1.27
2019-01-30T19:47:42.518Z,1.00
2019-01-30T19:50:19.261Z,1.67
2019-01-30T19:52:47.742Z,1.20
2019-01-30T19:55:16.361Z,1.27
2019-01-30T19:57:44.854Z,1.57
2019-01-30T20:00:21.425Z,2.43
2019-01-30T20:02:50.194Z,3.67
2019-01-30T20:05:18.989Z,2.40
2019-01-30T20:07:47.580Z,1.20
2019-01-30T20:10:21.392Z,1.63
2019-01-30T20:12:49.931Z,1.53
2019-01-30T20:15:19.288Z,1.17
2019-01-30T20:17:47.773Z,1.40
2019-01-30T20:20:20.797Z,3.73
2019-01-30T20:22:48.158Z,3.30
2019-01-30T20:25:24.913Z,1.57
2019-01-30T20:27:54.272Z,3.97
2019-01-30T20:30:24.038Z,2.77
2019-01-30T20:32:52.467Z,7.10
2019-01-30T20:35:20.893Z,2.73
2019-01-30T20:37:49.327Z,1.13
2019-01-30T20:40:20.255Z,1.13
2019-01-30T20:42:48.691Z,7.20
2019-01-30T20:45:17.352Z,7.97
2019-01-30T20:47:45.872Z,5.43
2019-01-30T20:50:28.187Z,6.40
2019-01-30T20:52:57.086Z,3.60
2019-01-30T20:55:25.681Z,3.33
2019-01-30T20:57:54.264Z,2.70
2019-01-30T21:00:27.810Z,2.00
2019-01-30T21:02:56.266Z,3.93
2019-01-30T21:05:24.724Z,4.80
2019-01-30T21:07:53.230Z,3.93
2019-01-30T21:10:26.780Z,3.97
2019-01-30T21:12:55.295Z,7.20
2019-01-30T21:15:23.989Z,3.47
2019-01-30T21:17:52.439Z,9.80
2019-01-30T21:20:20.858Z,9.20
2019-01-30T21:22:49.300Z,9.43
2019-01-30T21:25:19.679Z,9.33
2019-01-30T21:27:49.539Z,5.03
2019-01-30T21:30:32.662Z,9.73
2019-01-30T21:33:01.290Z,12.50
2019-01-30T21:35:30.758Z,9.90
2019-01-30T21:37:59.374Z,16.53
2019-01-30T21:40:27.879Z,21.13
2019-01-30T21:42:56.330Z,13.27
2019-01-30T21:45:26.295Z,8.73
2019-01-30T21:47:54.817Z,11.90
2019-01-30T21:50:24.301Z,8.30
2019-01-30T21:52:52.744Z,5.47
2019-01-30T21:55:23.212Z,7.10
2019-01-30T21:57:51.636Z,16.70
2019-01-30T22:00:22.930Z,4.87
2019-01-30T22:02:51.502Z,4.60
2019-01-30T22:05:20.025Z,3.97
2019-01-30T22:08:00.055Z,8.20
2019-01-30T22:10:26.834Z,4.10
2019-01-30T22:12:55.260Z,3.80
2019-01-30T22:15:25.255Z,5.83
2019-01-30T22:17:53.747Z,4.93
2019-01-30T22:20:23.725Z,3.80
2019-01-30T22:22:52.318Z,4.63
2019-01-30T22:25:22.089Z,3.23
2019-01-30T22:27:50.778Z,3.07
2019-01-30T22:30:30.501Z,5.23
2019-01-30T22:32:58.926Z,7.30
2019-01-30T22:35:27.367Z,3.50
2019-01-30T22:37:55.819Z,8.17
2019-01-30T22:40:24.258Z,7.80
2019-01-30T22:42:52.752Z,5.63
2019-01-30T22:45:22.375Z,8.67
2019-01-30T22:47:50.864Z,9.60
2019-01-30T22:50:20.349Z,10.83
2019-01-30T22:52:48.774Z,5.47
2019-01-30T22:55:19.153Z,6.80
2019-01-30T22:57:50.601Z,9.30
2019-01-30T23:00:25.943Z,5.57
2019-01-30T23:02:54.518Z,15.70
2019-01-30T23:05:34.387Z,9.33
2019-01-30T23:08:02.994Z,13.67
2019-01-30T23:10:49.667Z,17.80
2019-01-30T23:13:26.928Z,17.23
2019-01-30T23:16:07.544Z,9.70
2019-01-30T23:18:41.629Z,10.20
2019-01-30T23:21:29.612Z,10.50
2019-01-30T23:24:07.047Z,11.57
2019-01-30T23:26:38.563Z,7.60
2019-01-30T23:29:12.874Z,10.73
2019-01-30T23:31:50.147Z,7.80
2019-01-30T23:34:36.722Z,6.10
2019-01-30T23:37:29.014Z,7.00
2019-01-30T23:40:18.230Z,7.23
2019-01-30T23:43:01.335Z,9.60
2019-01-30T23:45:47.785Z,9.67
2019-01-30T23:48:30.948Z,6.40
2019-01-30T23:51:02.470Z,3.53
2019-01-30T23:53:54.933Z,8.73
2019-01-30T23:56:35.430Z,10.37
2019-01-30T23:59:18.772Z,8.53
